Tridens — PBVO — position and weather

sailwx.info

Track history (hours):
 
Tides and Currents Weather Stations Pressure Air Temp Water Temp Dewpoint Dewpoint Depression Visibility Wind Speed Wind Dir Waves Ship Positions

Oceanographic research ship Tridens (Netherlands)

Detailed information on ship capabilities available from University of Delaware's Ocean Information Center.

Last reported at 2014-Sep-22 03:31 UTC. Time now 2014-Sep-22 04:15 UTC.
Position N 55°59' W 003°11'.

Length 74 m; beam 14 m.

Type: Ship. MMSI: 244033000.

Date/timePositionNaut miles runAvg speedWind from/ knotsBaromVisibWave heightAir tempDewpointWater temp
2014-Sep-22 03:31N 55°59' W 003°11'0 0.0
2014-Sep-22 02:31N 55°59' W 003°11'0 0.0
2014-Sep-22 01:31N 55°59' W 003°11'0 0.0
2014-Sep-22 00:31N 55°59' W 003°11'0 0.0
2014-Sep-21 23:31N 55°59' W 003°11'0 0.0
2014-Sep-21 22:31N 55°59' W 003°11'0 0.0
2014-Sep-21 21:22N 55°59' W 003°11'0 0.0
2014-Sep-21 20:22N 55°59' W 003°11'0 0.0
2014-Sep-21 19:25N 55°59' W 003°11'0 0.0
2014-Sep-21 18:25N 55°59' W 003°11'0 0.0
2014-Sep-21 17:25N 55°59' W 003°11'0 0.0
2014-Sep-21 16:25N 55°59' W 003°11'0 0.0
2014-Sep-21 15:25N 55°59' W 003°11'0 0.0
2014-Sep-21 14:28N 55°59' W 003°11'0 0.0
2014-Sep-21 13:28N 55°59' W 003°11'0 0.0
2014-Sep-21 12:28N 55°59' W 003°11'0 0.0
2014-Sep-21 11:28N 55°59' W 003°11'0 0.0
2014-Sep-21 10:31N 55°59' W 003°11'0 0.0
2014-Sep-21 09:31N 55°59' W 003°11'0 0.0
2014-Sep-21 08:31N 55°59' W 003°11'0 0.0
2014-Sep-21 07:31N 55°59' W 003°11'0 0.0
2014-Sep-21 06:31N 55°59' W 003°11'0 0.0
2014-Sep-21 05:31N 55°59' W 003°11'0 0.0
2014-Sep-21 04:31N 55°59' W 003°11'0 0.0
2014-Sep-21 03:19N 55°59' W 003°11'0 0.0
2014-Sep-21 02:31N 55°59' W 003°11'0 0.0
2014-Sep-21 01:31N 55°59' W 003°11'0 0.0
2014-Sep-21 00:31N 55°59' W 003°11'0 0.0
2014-Sep-20 23:34N 55°59' W 003°11'0 0.0
2014-Sep-20 22:33N 55°59' W 003°11'0 0.0
2014-Sep-20 21:33N 55°59' W 003°11'0 0.0
2014-Sep-20 20:33N 55°59' W 003°11'0 0.0
2014-Sep-20 19:33N 55°59' W 003°11'0 0.0
2014-Sep-20 18:24N 55°59' W 003°11'0 0.0
2014-Sep-20 17:24N 55°59' W 003°11'0 0.0
2014-Sep-20 16:27N 55°59' W 003°11'0 0.0
2014-Sep-20 15:27N 55°59' W 003°11'0 0.0
2014-Sep-20 14:27N 55°59' W 003°11'0 0.0
2014-Sep-20 13:24N 55°59' W 003°11'0 0.0
2014-Sep-20 12:27N 55°59' W 003°11'0 0.0
2014-Sep-20 11:30N 55°59' W 003°11'0 0.0
2014-Sep-20 10:30N 55°59' W 003°11'0 0.0
2014-Sep-20 09:30N 55°59' W 003°11'0 0.0
2014-Sep-20 08:30N 55°59' W 003°11'0 0.0
2014-Sep-20 07:30N 55°59' W 003°11'0 0.0
2014-Sep-20 06:33N 55°59' W 003°11'0 0.0
2014-Sep-20 05:33N 55°59' W 003°11'0 0.0
2014-Sep-20 04:30N 55°59' W 003°11'0 0.0
2014-Sep-20 03:33N 55°59' W 003°11'0 0.0
2014-Sep-20 02:33N 55°59' W 003°11'0 0.0
2014-Sep-20 01:33N 55°59' W 003°11'0 0.0
2014-Sep-20 00:33N 55°59' W 003°11'0 0.0
2014-Sep-19 23:33N 55°59' W 003°11'0 0.0
2014-Sep-19 22:33N 55°59' W 003°11'0 0.0
2014-Sep-19 21:24N 55°59' W 003°11'0 0.0
2014-Sep-19 20:33N 55°59' W 003°11'0 0.5
2014-Sep-19 19:33N 55°59' W 003°11'9 8.8
2014-Sep-19 18:34N 56°04' W 002°58'8 8.2
2014-Sep-19 17:33N 56°07' W 002°44'1212.3
2014-Sep-19 16:34N 56°14' W 002°26'9 8.7
2014-Sep-19 15:33N 56°15' W 002°10'11 3.6
2014-Sep-19 12:24N 56°26' W 002°10'66 7.3
2014-Sep-19 03:24N 57°30' W 001°40'7 8.6
2014-Sep-19 02:33N 57°38' W 001°43'10 9.6
2014-Sep-19 01:34N 57°46' W 001°50'11 3.5
2014-Sep-18 22:33N 57°44' W 001°30'10 9.8
2014-Sep-18 21:31N 57°34' W 001°30'86 8.5
2014-Sep-18 11:26N 56°09' W 001°11'  
2014-Sep-15 12:10N 52°27' E 003°46'813.5
2014-Sep-15 11:33N 52°22' E 003°57'1413.6
2014-Sep-15 10:33N 52°11' E 004°11'6 5.6
2014-Sep-15 09:29N 52°06' E 004°16'0 0.0
2014-Sep-15 08:32N 52°06' E 004°16'0 0.0
2014-Sep-15 07:32N 52°06' E 004°16'0 0.0
2014-Sep-15 06:29N 52°06' E 004°16'  
2014-Sep-12 08:31N 52°06' E 004°16'0 0.0
2014-Sep-12 07:31N 52°06' E 004°16'0 0.0
2014-Sep-12 06:28N 52°06' E 004°16'0 0.0
2014-Sep-12 05:31N 52°06' E 004°16'0 0.0
2014-Sep-12 04:31N 52°06' E 004°16'  
Track history (hours):
 
Tides and Currents Weather Stations Pressure Air Temp Water Temp Dewpoint Dewpoint Depression Visibility Wind Speed Wind Dir Waves Ship Positions

Oceanographic research ship Tridens (Netherlands)

Detailed information on ship capabilities available from University of Delaware's Ocean Information Center.

Last reported at 2014-Sep-22 03:31 UTC. Time now 2014-Sep-22 04:15 UTC.
Position N 55°59' W 003°11'.

Length 74 m; beam 14 m.

Type: Ship. MMSI: 244033000.

Date/timePositionNaut miles runAvg speedWind from/ knotsBaromVisibWave heightAir tempDewpointWater temp
2014-Sep-22 03:31N 55°59' W 003°11'0 0.0
2014-Sep-22 02:31N 55°59' W 003°11'0 0.0
2014-Sep-22 01:31N 55°59' W 003°11'0 0.0
2014-Sep-22 00:31N 55°59' W 003°11'0 0.0
2014-Sep-21 23:31N 55°59' W 003°11'0 0.0
2014-Sep-21 22:31N 55°59' W 003°11'0 0.0
2014-Sep-21 21:22N 55°59' W 003°11'0 0.0
2014-Sep-21 20:22N 55°59' W 003°11'0 0.0
2014-Sep-21 19:25N 55°59' W 003°11'0 0.0
2014-Sep-21 18:25N 55°59' W 003°11'0 0.0
2014-Sep-21 17:25N 55°59' W 003°11'0 0.0
2014-Sep-21 16:25N 55°59' W 003°11'0 0.0
2014-Sep-21 15:25N 55°59' W 003°11'0 0.0
2014-Sep-21 14:28N 55°59' W 003°11'0 0.0
2014-Sep-21 13:28N 55°59' W 003°11'0 0.0
2014-Sep-21 12:28N 55°59' W 003°11'0 0.0
2014-Sep-21 11:28N 55°59' W 003°11'0 0.0
2014-Sep-21 10:31N 55°59' W 003°11'0 0.0
2014-Sep-21 09:31N 55°59' W 003°11'0 0.0
2014-Sep-21 08:31N 55°59' W 003°11'0 0.0
2014-Sep-21 07:31N 55°59' W 003°11'0 0.0
2014-Sep-21 06:31N 55°59' W 003°11'0 0.0
2014-Sep-21 05:31N 55°59' W 003°11'0 0.0
2014-Sep-21 04:31N 55°59' W 003°11'0 0.0
2014-Sep-21 03:19N 55°59' W 003°11'0 0.0
2014-Sep-21 02:31N 55°59' W 003°11'0 0.0
2014-Sep-21 01:31N 55°59' W 003°11'0 0.0
2014-Sep-21 00:31N 55°59' W 003°11'0 0.0
2014-Sep-20 23:34N 55°59' W 003°11'0 0.0
2014-Sep-20 22:33N 55°59' W 003°11'0 0.0
2014-Sep-20 21:33N 55°59' W 003°11'0 0.0
2014-Sep-20 20:33N 55°59' W 003°11'0 0.0
2014-Sep-20 19:33N 55°59' W 003°11'0 0.0
2014-Sep-20 18:24N 55°59' W 003°11'0 0.0
2014-Sep-20 17:24N 55°59' W 003°11'0 0.0
2014-Sep-20 16:27N 55°59' W 003°11'0 0.0
2014-Sep-20 15:27N 55°59' W 003°11'0 0.0
2014-Sep-20 14:27N 55°59' W 003°11'0 0.0
2014-Sep-20 13:24N 55°59' W 003°11'0 0.0
2014-Sep-20 12:27N 55°59' W 003°11'0 0.0
2014-Sep-20 11:30N 55°59' W 003°11'0 0.0
2014-Sep-20 10:30N 55°59' W 003°11'0 0.0
2014-Sep-20 09:30N 55°59' W 003°11'0 0.0
2014-Sep-20 08:30N 55°59' W 003°11'0 0.0
2014-Sep-20 07:30N 55°59' W 003°11'0 0.0
2014-Sep-20 06:33N 55°59' W 003°11'0 0.0
2014-Sep-20 05:33N 55°59' W 003°11'0 0.0
2014-Sep-20 04:30N 55°59' W 003°11'0 0.0
2014-Sep-20 03:33N 55°59' W 003°11'0 0.0
2014-Sep-20 02:33N 55°59' W 003°11'0 0.0
2014-Sep-20 01:33N 55°59' W 003°11'0 0.0
2014-Sep-20 00:33N 55°59' W 003°11'0 0.0
2014-Sep-19 23:33N 55°59' W 003°11'0 0.0
2014-Sep-19 22:33N 55°59' W 003°11'0 0.0
2014-Sep-19 21:24N 55°59' W 003°11'0 0.0
2014-Sep-19 20:33N 55°59' W 003°11'0 0.5
2014-Sep-19 19:33N 55°59' W 003°11'9 8.8
2014-Sep-19 18:34N 56°04' W 002°58'8 8.2
2014-Sep-19 17:33N 56°07' W 002°44'1212.3
2014-Sep-19 16:34N 56°14' W 002°26'9 8.7
2014-Sep-19 15:33N 56°15' W 002°10'11 3.6
2014-Sep-19 12:24N 56°26' W 002°10'66 7.3
2014-Sep-19 03:24N 57°30' W 001°40'7 8.6
2014-Sep-19 02:33N 57°38' W 001°43'10 9.6
2014-Sep-19 01:34N 57°46' W 001°50'11 3.5
2014-Sep-18 22:33N 57°44' W 001°30'10 9.8
2014-Sep-18 21:31N 57°34' W 001°30'86 8.5
2014-Sep-18 11:26N 56°09' W 001°11'  
2014-Sep-15 12:10N 52°27' E 003°46'813.5
2014-Sep-15 11:33N 52°22' E 003°57'1413.6
2014-Sep-15 10:33N 52°11' E 004°11'6 5.6
2014-Sep-15 09:29N 52°06' E 004°16'0 0.0
2014-Sep-15 08:32N 52°06' E 004°16'0 0.0
2014-Sep-15 07:32N 52°06' E 004°16'0 0.0
2014-Sep-15 06:29N 52°06' E 004°16'  
2014-Sep-12 08:31N 52°06' E 004°16'0 0.0
2014-Sep-12 07:31N 52°06' E 004°16'0 0.0
2014-Sep-12 06:28N 52°06' E 004°16'0 0.0
2014-Sep-12 05:31N 52°06' E 004°16'0 0.0
2014-Sep-12 04:31N 52°06' E 004°16'  

Dump ship's entire track history